createdAt,value
2018-10-01T00:01:00.178Z,12.50
2018-10-01T00:03:28.799Z,12.23
2018-10-01T00:05:57.640Z,10.80
2018-10-01T00:08:26.192Z,15.00
2018-10-01T00:10:54.947Z,12.97
2018-10-01T00:13:23.437Z,11.40
2018-10-01T00:15:51.980Z,10.60
2018-10-01T00:18:20.476Z,10.87
2018-10-01T00:20:54.329Z,10.00
2018-10-01T00:23:22.832Z,12.17
2018-10-01T00:25:51.340Z,13.70
2018-10-01T00:28:19.981Z,12.37
2018-10-01T00:30:48.504Z,12.93
2018-10-01T00:33:17.117Z,11.70
2018-10-01T00:35:45.998Z,10.20
2018-10-01T00:38:14.980Z,11.97
2018-10-01T00:40:43.460Z,11.47
2018-10-01T00:43:12.016Z,10.30
2018-10-01T00:45:40.555Z,12.77
2018-10-01T00:48:09.107Z,12.77
2018-10-01T00:50:37.730Z,17.93
2018-10-01T00:53:06.279Z,13.83
2018-10-01T00:55:34.765Z,10.40
2018-10-01T00:58:05.164Z,13.23
2018-10-01T01:00:33.731Z,12.80
2018-10-01T01:03:04.123Z,12.67
2018-10-01T01:05:32.687Z,14.87
2018-10-01T01:08:03.239Z,13.13
2018-10-01T01:10:31.801Z,10.30
2018-10-01T01:13:00.315Z,11.03
2018-10-01T01:15:28.842Z,14.00
2018-10-01T01:17:57.649Z,12.37
2018-10-01T01:20:32.600Z,11.23
2018-10-01T01:23:03.356Z,9.33
2018-10-01T01:25:31.874Z,10.90
2018-10-01T01:28:00.621Z,14.93
2018-10-01T01:30:29.115Z,12.97
2018-10-01T01:32:57.670Z,10.03
2018-10-01T01:35:26.407Z,11.93
2018-10-01T01:37:54.921Z,9.03
2018-10-01T01:40:23.409Z,10.10
2018-10-01T01:42:51.941Z,13.13
2018-10-01T01:45:20.442Z,14.30
2018-10-01T01:47:49.090Z,10.27
2018-10-01T01:50:17.631Z,9.27
2018-10-01T01:52:46.254Z,12.33
2018-10-01T01:55:14.784Z,11.67
2018-10-01T01:57:43.711Z,12.60
2018-10-01T02:00:12.237Z,15.50
2018-10-01T02:02:40.790Z,13.20
2018-10-01T02:05:09.412Z,12.23
2018-10-01T02:07:37.919Z,13.00
2018-10-01T02:10:06.475Z,11.07
2018-10-01T02:12:34.989Z,10.07
2018-10-01T02:15:05.705Z,10.33
2018-10-01T02:17:34.542Z,12.20
2018-10-01T02:20:05.088Z,9.07
2018-10-01T02:22:33.630Z,12.27
2018-10-01T02:25:04.229Z,13.17
2018-10-01T02:27:32.749Z,8.83
2018-10-01T02:30:03.467Z,8.87
2018-10-01T02:32:32.108Z,11.47
2018-10-01T02:35:00.636Z,9.00
2018-10-01T02:37:29.205Z,7.43
2018-10-01T02:39:57.757Z,10.93
2018-10-01T02:42:26.288Z,11.27
2018-10-01T02:44:54.811Z,6.43
2018-10-01T02:47:24.012Z,7.67
2018-10-01T02:49:52.514Z,12.73
2018-10-01T02:52:26.271Z,10.07
2018-10-01T02:54:55.751Z,9.07
2018-10-01T02:57:25.159Z,10.10
2018-10-01T02:59:53.646Z,9.60
2018-10-01T03:02:22.551Z,10.43
2018-10-01T03:04:51.077Z,9.53
2018-10-01T03:07:19.612Z,8.47
2018-10-01T03:09:54.986Z,6.87
2018-10-01T03:12:25.234Z,11.93
2018-10-01T03:14:56.587Z,11.60
2018-10-01T03:17:27.481Z,8.70
2018-10-01T03:20:00.366Z,7.00
2018-10-01T03:22:30.316Z,9.20
2018-10-01T03:24:59.426Z,6.83
2018-10-01T03:27:27.983Z,8.00
2018-10-01T03:29:56.503Z,9.13
2018-10-01T03:32:25.380Z,8.53
2018-10-01T03:34:54.086Z,7.90
2018-10-01T03:37:22.582Z,8.03
2018-10-01T03:39:51.161Z,9.13
2018-10-01T03:42:19.657Z,4.70
2018-10-01T03:44:48.455Z,6.80
2018-10-01T03:47:17.012Z,7.47
2018-10-01T03:49:45.558Z,6.77
2018-10-01T03:52:14.059Z,14.13
2018-10-01T03:54:42.582Z,7.17
2018-10-01T03:57:11.676Z,5.93
2018-10-01T03:59:40.589Z,4.43
2018-10-01T04:02:09.210Z,8.57
2018-10-01T04:04:37.741Z,3.33
2018-10-01T04:07:06.233Z,7.10
2018-10-01T04:09:34.749Z,5.23
2018-10-01T04:12:04.772Z,5.00
2018-10-01T04:14:33.354Z,3.80
2018-10-01T04:17:06.199Z,8.17
2018-10-01T04:19:34.692Z,4.97
2018-10-01T04:22:04.499Z,5.77
2018-10-01T04:24:33.058Z,6.93
2018-10-01T04:27:03.135Z,9.30
2018-10-01T04:29:31.690Z,6.37
2018-10-01T04:32:00.203Z,7.33
2018-10-01T04:34:28.749Z,7.77
2018-10-01T04:36:57.386Z,6.83
2018-10-01T04:39:25.936Z,6.83
2018-10-01T04:41:54.578Z,7.80
2018-10-01T04:44:23.091Z,8.37
2018-10-01T04:46:51.697Z,6.90
2018-10-01T04:49:20.131Z,9.33
2018-10-01T04:51:49.569Z,6.37
2018-10-01T04:54:18.157Z,6.37
2018-10-01T04:56:46.688Z,6.80
2018-10-01T04:59:15.183Z,7.23
2018-10-01T05:01:43.803Z,8.40
2018-10-01T05:04:12.312Z,9.30
2018-10-01T05:06:40.861Z,7.53
2018-10-01T05:09:10.300Z,5.73
2018-10-01T05:11:38.971Z,6.37
2018-10-01T05:14:08.295Z,10.43
2018-10-01T05:16:36.841Z,11.47
2018-10-01T05:19:05.785Z,4.17
2018-10-01T05:21:35.578Z,7.00
2018-10-01T05:24:05.229Z,4.70
2018-10-01T05:26:34.349Z,8.47
2018-10-01T05:29:04.638Z,6.17
2018-10-01T05:31:33.195Z,6.63
2018-10-01T05:34:02.804Z,6.50
2018-10-01T05:36:31.274Z,8.93
2018-10-01T05:38:59.800Z,9.17
2018-10-01T05:41:28.295Z,6.90
2018-10-01T05:43:57.148Z,6.63
2018-10-01T05:46:25.634Z,7.33
2018-10-01T05:48:54.127Z,8.17
2018-10-01T05:51:22.679Z,8.93
2018-10-01T05:53:51.304Z,7.23
2018-10-01T05:56:19.819Z,7.90
2018-10-01T05:58:48.452Z,7.13
2018-10-01T06:01:16.992Z,5.80
2018-10-01T06:03:45.494Z,7.73
2018-10-01T06:06:14.045Z,6.83
2018-10-01T06:08:42.586Z,8.63
2018-10-01T06:11:11.084Z,7.43
2018-10-01T06:13:39.590Z,6.33
2018-10-01T06:16:11.974Z,9.50
2018-10-01T06:18:40.512Z,5.97
2018-10-01T06:21:09.665Z,12.10
2018-10-01T06:23:38.136Z,5.87
2018-10-01T06:26:06.884Z,6.57
2018-10-01T06:28:35.884Z,6.97
2018-10-01T06:31:04.438Z,10.37
2018-10-01T06:33:33.492Z,7.63
2018-10-01T06:36:03.205Z,6.83
2018-10-01T06:38:31.772Z,6.13
2018-10-01T06:41:00.686Z,6.53
2018-10-01T06:43:29.270Z,10.83
2018-10-01T06:45:57.775Z,8.83
2018-10-01T06:48:26.283Z,10.97
2018-10-01T06:50:54.759Z,9.53
2018-10-01T06:53:23.385Z,4.53
2018-10-01T06:55:51.882Z,10.50
2018-10-01T06:58:20.434Z,8.40
2018-10-01T07:00:48.964Z,9.37
2018-10-01T07:03:17.602Z,5.57
2018-10-01T07:05:46.554Z,10.50
2018-10-01T07:08:15.125Z,6.70
2018-10-01T07:10:43.728Z,5.40
2018-10-01T07:13:12.250Z,9.37
2018-10-01T07:15:40.877Z,7.03
2018-10-01T07:18:09.369Z,7.87
2018-10-01T07:20:38.899Z,4.17
2018-10-01T07:23:07.542Z,7.13
2018-10-01T07:25:35.985Z,7.27
2018-10-01T07:28:05.265Z,5.57
2018-10-01T07:30:33.846Z,7.47
2018-10-01T07:33:04.502Z,4.80
2018-10-01T07:35:33.037Z,6.07
2018-10-01T07:38:02.669Z,6.97
2018-10-01T07:40:31.220Z,6.33
2018-10-01T07:42:59.761Z,7.13
2018-10-01T07:45:28.555Z,4.80
2018-10-01T07:47:57.871Z,7.73
2018-10-01T07:50:26.418Z,5.07
2018-10-01T07:52:55.403Z,6.33
2018-10-01T07:55:23.977Z,6.27
2018-10-01T07:57:52.473Z,5.20
2018-10-01T08:00:21.391Z,4.73
2018-10-01T08:02:49.898Z,4.53
2018-10-01T08:05:18.391Z,5.83
2018-10-01T08:07:46.975Z,5.57
2018-10-01T08:10:15.537Z,5.70
2018-10-01T08:12:44.086Z,8.60
2018-10-01T08:15:12.592Z,7.13
2018-10-01T08:17:41.126Z,3.47
2018-10-01T08:20:09.680Z,3.93
2018-10-01T08:22:38.161Z,5.37
2018-10-01T08:25:07.052Z,4.53
2018-10-01T08:27:35.583Z,4.10
2018-10-01T08:30:05.810Z,3.00
2018-10-01T08:32:34.296Z,7.93
2018-10-01T08:35:04.463Z,5.27
2018-10-01T08:37:33.227Z,9.27
2018-10-01T08:40:03.762Z,5.10
2018-10-01T08:42:32.267Z,4.23
2018-10-01T08:45:00.791Z,5.07
2018-10-01T08:47:29.527Z,5.03
2018-10-01T08:51:04.771Z,4.10
2018-10-01T08:53:37.850Z,4.13
2018-10-01T08:56:06.455Z,4.63
2018-10-01T08:58:35.143Z,6.60
2018-10-01T09:01:05.058Z,4.07
2018-10-01T09:03:33.601Z,4.67
2018-10-01T09:06:03.750Z,7.33
2018-10-01T09:08:32.287Z,4.43
2018-10-01T09:11:02.720Z,2.03
2018-10-01T09:13:31.240Z,4.60
2018-10-01T09:15:59.771Z,3.00
2018-10-01T09:18:28.247Z,3.37
2018-10-01T09:20:56.785Z,1.23
2018-10-01T09:23:25.373Z,2.70
2018-10-01T09:25:53.897Z,4.33
2018-10-01T09:28:22.400Z,3.13
2018-10-01T09:30:50.942Z,3.07
2018-10-01T09:33:19.486Z,4.07
2018-10-01T09:35:48.586Z,2.23
2018-10-01T09:38:21.434Z,5.57
2018-10-01T09:40:50.000Z,2.93
2018-10-01T09:43:18.494Z,4.63
2018-10-01T09:45:47.029Z,6.73
2018-10-01T09:48:15.551Z,2.30
2018-10-01T09:50:44.242Z,3.37
2018-10-01T09:53:12.745Z,3.77
2018-10-01T09:55:41.385Z,3.50
2018-10-01T09:58:10.300Z,2.33
2018-10-01T10:00:42.581Z,4.87
2018-10-01T10:03:11.782Z,3.03
2018-10-01T10:05:40.305Z,2.70
2018-10-01T10:08:08.898Z,3.23
2018-10-01T10:10:37.443Z,3.47
2018-10-01T10:13:05.989Z,2.73
2018-10-01T10:15:34.517Z,4.90
2018-10-01T10:18:04.979Z,4.43
2018-10-01T10:20:34.658Z,5.57
2018-10-01T10:23:04.775Z,2.97
2018-10-01T10:25:33.303Z,2.73
2018-10-01T10:28:02.878Z,7.07
2018-10-01T10:30:31.353Z,4.80
2018-10-01T10:32:59.933Z,4.30
2018-10-01T10:35:28.540Z,7.47
2018-10-01T10:37:57.067Z,8.67
2018-10-01T10:40:25.561Z,9.50
2018-10-01T10:42:54.068Z,3.60
2018-10-01T10:45:22.630Z,6.47
2018-10-01T10:47:51.149Z,8.23
2018-10-01T10:50:19.863Z,8.30
2018-10-01T10:52:48.720Z,6.10
2018-10-01T10:55:17.222Z,12.83
2018-10-01T10:57:45.757Z,7.43
2018-10-01T11:00:14.375Z,11.70
2018-10-01T11:02:42.865Z,9.30
2018-10-01T11:05:11.373Z,8.07
2018-10-01T11:07:39.994Z,9.30
2018-10-01T11:10:08.884Z,8.20
2018-10-01T11:12:37.414Z,7.53
2018-10-01T11:15:06.162Z,7.57
2018-10-01T11:17:34.528Z,6.63
2018-10-01T11:20:04.961Z,8.77
2018-10-01T11:22:33.737Z,7.83
2018-10-01T11:25:03.711Z,7.83
2018-10-01T11:27:32.231Z,8.13
2018-10-01T11:30:00.782Z,13.63
2018-10-01T11:32:30.298Z,11.73
2018-10-01T11:34:58.842Z,13.60
2018-10-01T11:37:27.326Z,12.73
2018-10-01T11:39:55.858Z,10.90
2018-10-01T11:42:24.426Z,8.27
2018-10-01T11:44:52.990Z,8.40
2018-10-01T11:47:21.486Z,6.33
2018-10-01T11:49:50.013Z,7.17
2018-10-01T11:52:18.565Z,10.33
2018-10-01T11:54:47.162Z,13.20
2018-10-01T11:57:16.193Z,12.70
2018-10-01T11:59:44.741Z,8.53
2018-10-01T12:02:13.292Z,8.03
2018-10-01T12:04:41.890Z,8.70
2018-10-01T12:07:17.011Z,9.53
2018-10-01T12:09:45.668Z,7.90
2018-10-01T12:12:14.165Z,12.03
2018-10-01T12:14:42.695Z,9.70
2018-10-01T12:17:11.229Z,11.60
2018-10-01T12:19:39.777Z,7.27
2018-10-01T12:22:08.374Z,10.20
2018-10-01T12:24:36.912Z,10.83
2018-10-01T12:27:05.839Z,9.33
2018-10-01T12:29:34.371Z,10.47
2018-10-01T12:32:04.186Z,9.03
2018-10-01T12:34:32.710Z,12.83
2018-10-01T12:37:03.737Z,12.87
2018-10-01T12:39:32.464Z,10.47
2018-10-01T12:42:00.962Z,8.07
2018-10-01T12:44:29.539Z,10.10
2018-10-01T12:46:58.546Z,8.17
2018-10-01T12:49:27.133Z,6.73
2018-10-01T12:51:55.635Z,10.30
2018-10-01T12:54:24.354Z,10.90
2018-10-01T12:56:52.961Z,9.90
2018-10-01T12:59:21.499Z,5.13
2018-10-01T13:01:50.005Z,4.70
2018-10-01T13:04:18.640Z,5.93
2018-10-01T13:06:47.687Z,2.47
2018-10-01T13:09:16.529Z,7.37
2018-10-01T13:11:49.000Z,3.47
2018-10-01T13:14:17.497Z,3.53
2018-10-01T13:16:46.094Z,7.37
2018-10-01T13:19:14.545Z,9.43
2018-10-01T13:21:43.035Z,7.33
2018-10-01T13:24:11.590Z,6.03
2018-10-01T13:26:40.174Z,9.53
2018-10-01T13:29:08.711Z,8.10
2018-10-01T13:31:37.818Z,6.50
2018-10-01T13:34:06.512Z,5.57
2018-10-01T13:36:35.071Z,8.10
2018-10-01T13:39:08.533Z,5.03
2018-10-01T13:41:37.175Z,6.27
2018-10-01T13:44:07.894Z,5.93
2018-10-01T13:46:36.938Z,3.70
2018-10-01T13:49:05.708Z,4.63
2018-10-01T13:51:34.302Z,5.53
2018-10-01T13:54:05.552Z,6.20
2018-10-01T13:56:34.065Z,8.90
2018-10-01T13:59:03.837Z,3.57
2018-10-01T14:01:32.504Z,4.13
2018-10-01T14:04:00.945Z,7.13
2018-10-01T14:06:29.592Z,7.73
2018-10-01T14:08:58.112Z,13.40
2018-10-01T14:11:26.716Z,9.47
2018-10-01T14:13:55.392Z,5.23
2018-10-01T14:16:24.177Z,8.93
2018-10-01T14:18:52.830Z,6.43
2018-10-01T14:21:21.502Z,6.67
2018-10-01T14:23:50.701Z,5.23
2018-10-01T14:26:19.224Z,5.97
2018-10-01T14:28:47.892Z,4.00
2018-10-01T14:31:16.699Z,5.80
2018-10-01T14:33:45.257Z,5.27
2018-10-01T14:36:13.817Z,4.37
2018-10-01T14:38:42.350Z,4.63
2018-10-01T14:41:10.913Z,3.80
2018-10-01T14:43:40.336Z,6.27
2018-10-01T14:46:09.074Z,5.10
2018-10-01T14:48:37.725Z,4.33
2018-10-01T14:51:06.334Z,3.07
2018-10-01T14:53:34.840Z,4.40
2018-10-01T14:56:07.689Z,3.67
2018-10-01T14:58:36.224Z,6.30
2018-10-01T15:01:05.118Z,4.80
2018-10-01T15:03:33.755Z,3.50
2018-10-01T15:06:04.080Z,6.30
2018-10-01T15:08:32.620Z,7.60
2018-10-01T15:11:03.121Z,10.30
2018-10-01T15:13:31.656Z,5.10
2018-10-01T15:16:00.163Z,2.77
2018-10-01T15:18:28.808Z,6.93
2018-10-01T15:20:57.342Z,6.90
2018-10-01T15:23:26.715Z,6.53
2018-10-01T15:25:55.365Z,5.10
2018-10-01T15:28:24.143Z,7.40
2018-10-01T15:30:52.674Z,5.10
2018-10-01T15:33:21.317Z,3.60
2018-10-01T15:35:49.889Z,6.73
2018-10-01T15:38:18.435Z,5.03
2018-10-01T15:40:46.994Z,5.00
2018-10-01T15:43:15.541Z,6.70
2018-10-01T15:45:45.106Z,5.27
2018-10-01T15:48:13.663Z,4.40
2018-10-01T15:50:42.197Z,5.37
2018-10-01T15:53:11.109Z,6.20
2018-10-01T15:55:39.983Z,4.77
2018-10-01T15:58:08.596Z,3.80
2018-10-01T16:00:38.402Z,3.23
2018-10-01T16:03:07.219Z,4.03
2018-10-01T16:05:35.691Z,1.87
2018-10-01T16:08:07.416Z,5.33
2018-10-01T16:10:35.910Z,2.03
2018-10-01T16:13:07.005Z,3.50
2018-10-01T16:15:35.595Z,4.30
2018-10-01T16:18:06.347Z,1.73
2018-10-01T16:20:36.612Z,2.70
2018-10-01T16:23:05.574Z,2.50
2018-10-01T16:25:34.520Z,4.10
2018-10-01T16:28:05.011Z,2.57
2018-10-01T16:30:33.602Z,4.00
2018-10-01T16:33:05.428Z,3.00
2018-10-01T16:35:34.100Z,4.67
2018-10-01T16:38:04.012Z,4.27
2018-10-01T16:40:32.729Z,3.43
2018-10-01T16:43:03.146Z,2.30
2018-10-01T16:45:32.031Z,7.53
2018-10-01T16:48:00.528Z,7.30
2018-10-01T16:50:30.543Z,4.97
2018-10-01T16:52:59.086Z,3.93
2018-10-01T16:55:27.617Z,5.13
2018-10-01T16:57:56.166Z,6.17
2018-10-01T17:00:25.077Z,6.57
2018-10-01T17:02:53.683Z,10.50
2018-10-01T17:05:22.271Z,5.30
2018-10-01T17:07:50.849Z,5.13
2018-10-01T17:10:20.136Z,12.00
2018-10-01T17:12:48.765Z,6.80
2018-10-01T17:15:17.359Z,7.30
2018-10-01T17:17:45.857Z,11.20
2018-10-01T17:20:14.404Z,8.47
2018-10-01T17:22:42.908Z,9.67
2018-10-01T17:25:11.434Z,5.07
2018-10-01T17:27:40.216Z,8.00
2018-10-01T17:30:10.429Z,8.93
2018-10-01T17:32:38.936Z,6.20
2018-10-01T17:35:07.495Z,8.20
2018-10-01T17:37:36.151Z,8.90
2018-10-01T17:40:05.369Z,9.17
2018-10-01T17:42:34.054Z,6.57
2018-10-01T17:45:05.074Z,9.03
2018-10-01T17:47:33.555Z,7.00
2018-10-01T17:50:07.852Z,7.83
2018-10-01T17:52:36.389Z,11.30
2018-10-01T17:55:05.203Z,6.37
2018-10-01T17:57:33.752Z,8.10
2018-10-01T18:00:06.908Z,12.30
2018-10-01T18:02:35.474Z,8.17
2018-10-01T18:05:06.021Z,7.67
2018-10-01T18:07:34.927Z,9.03
2018-10-01T18:10:07.731Z,11.47
2018-10-01T18:12:36.330Z,6.23
2018-10-01T18:15:07.507Z,6.47
2018-10-01T18:17:36.070Z,11.93
2018-10-01T18:20:06.719Z,10.30
2018-10-01T18:25:29.189Z,11.60
2018-10-01T18:27:57.673Z,9.90
2018-10-01T18:30:26.279Z,11.27
2018-10-01T18:32:54.856Z,10.20
2018-10-01T18:35:23.845Z,9.20
2018-10-01T18:37:52.417Z,10.83
2018-10-01T18:40:34.371Z,13.00
2018-10-01T18:43:08.778Z,10.93
2018-10-01T18:45:37.766Z,12.40
2018-10-01T18:48:07.295Z,9.17
2018-10-01T18:50:35.987Z,9.10
2018-10-01T18:53:06.767Z,11.53
2018-10-01T18:55:35.412Z,8.73
2018-10-01T18:58:06.893Z,11.73
2018-10-01T19:00:39.271Z,12.60
2018-10-01T19:03:07.856Z,12.87
2018-10-01T19:05:36.375Z,10.27
2018-10-01T19:08:06.417Z,10.43
2018-10-01T19:10:35.084Z,16.33
2018-10-01T19:13:06.468Z,16.47
2018-10-01T19:15:34.996Z,13.87
2018-10-01T19:18:07.104Z,9.60
2018-10-01T19:20:36.703Z,11.63
2018-10-01T19:23:06.297Z,11.10
2018-10-01T19:25:34.874Z,11.03
2018-10-01T19:28:06.254Z,11.60
2018-10-01T19:30:34.822Z,8.97
2018-10-01T19:33:05.498Z,17.27
2018-10-01T19:35:34.072Z,11.27
2018-10-01T19:38:04.083Z,10.27
2018-10-01T19:40:32.610Z,16.00
2018-10-01T19:43:03.300Z,8.73
2018-10-01T19:45:31.914Z,12.83
2018-10-01T19:48:00.510Z,12.13
2018-10-01T19:50:29.205Z,13.53
2018-10-01T19:52:57.839Z,9.00
2018-10-01T19:55:26.781Z,9.17
2018-10-01T19:57:55.294Z,11.17
2018-10-01T20:00:23.925Z,10.20
2018-10-01T20:02:52.614Z,11.83
2018-10-01T20:05:21.209Z,10.90
2018-10-01T20:07:49.693Z,9.33
2018-10-01T20:10:18.707Z,9.53
2018-10-01T20:12:47.822Z,12.33
2018-10-01T20:15:16.422Z,10.40
2018-10-01T20:17:44.946Z,9.47
2018-10-01T20:20:13.735Z,7.17
2018-10-01T20:22:42.272Z,11.77
2018-10-01T20:25:11.537Z,11.00
2018-10-01T20:27:40.164Z,12.03
2018-10-01T20:30:10.059Z,13.10
2018-10-01T20:32:41.344Z,16.63
2018-10-01T20:35:09.987Z,10.50
2018-10-01T20:37:38.485Z,13.30
2018-10-01T20:40:07.999Z,13.47
2018-10-01T20:42:36.590Z,9.73
2018-10-01T20:45:05.570Z,11.87
2018-10-01T20:47:34.493Z,12.20
2018-10-01T20:50:07.437Z,9.17
2018-10-01T20:52:36.446Z,11.13
2018-10-01T20:55:09.191Z,12.47
2018-10-01T20:57:39.970Z,10.57
2018-10-01T21:00:14.637Z,8.60
2018-10-01T21:02:43.573Z,9.43
2018-10-01T21:05:12.072Z,11.73
2018-10-01T21:07:40.645Z,14.43
2018-10-01T21:10:09.220Z,12.00
2018-10-01T21:12:37.708Z,12.00
2018-10-01T21:15:09.282Z,17.50
2018-10-01T21:17:38.500Z,11.37
2018-10-01T21:20:07.153Z,9.07
2018-10-01T21:22:35.743Z,11.20
2018-10-01T21:25:06.235Z,12.20
2018-10-01T21:27:34.866Z,9.03
2018-10-01T21:30:05.291Z,10.20
2018-10-01T21:32:33.850Z,9.10
2018-10-01T21:35:04.176Z,11.73
2018-10-01T21:37:32.705Z,12.43
2018-10-01T21:40:08.277Z,10.13
2018-10-01T21:42:36.816Z,12.53
2018-10-01T21:45:05.858Z,12.40
2018-10-01T21:47:34.649Z,9.10
2018-10-01T21:50:04.881Z,9.60
2018-10-01T21:52:33.488Z,9.63
2018-10-01T21:55:04.011Z,12.03
2018-10-01T21:57:32.656Z,13.33
2018-10-01T22:00:03.520Z,8.70
2018-10-01T22:02:32.059Z,8.73
2018-10-01T22:05:00.757Z,13.47
2018-10-01T22:07:29.310Z,11.63
2018-10-01T22:09:57.868Z,11.43
2018-10-01T22:12:26.413Z,13.63
2018-10-01T22:14:54.890Z,11.33
2018-10-01T22:17:23.465Z,11.50
2018-10-01T22:19:52.039Z,8.73
2018-10-01T22:22:20.965Z,8.23
2018-10-01T22:24:49.487Z,12.83
2018-10-01T22:27:18.020Z,10.03
2018-10-01T22:29:46.558Z,10.00
2018-10-01T22:32:15.111Z,11.73
2018-10-01T22:34:43.629Z,14.37
2018-10-01T22:37:12.397Z,11.03
2018-10-01T22:39:40.953Z,11.57
2018-10-01T22:42:09.505Z,9.70
2018-10-01T22:44:38.032Z,8.67
2018-10-01T22:47:06.743Z,13.50
2018-10-01T22:49:35.270Z,10.83
2018-10-01T22:52:06.152Z,9.33
2018-10-01T22:54:34.734Z,11.17
2018-10-01T22:57:04.895Z,9.30
2018-10-01T22:59:33.435Z,9.70
2018-10-01T23:02:04.090Z,11.03
2018-10-01T23:04:32.639Z,13.63
2018-10-01T23:07:02.751Z,15.90
2018-10-01T23:09:31.294Z,7.73
2018-10-01T23:11:59.792Z,10.40
2018-10-01T23:14:28.338Z,9.20
2018-10-01T23:16:56.982Z,13.97
2018-10-01T23:19:25.543Z,12.77
2018-10-01T23:21:54.077Z,7.57
2018-10-01T23:24:22.596Z,11.87
2018-10-01T23:26:51.182Z,10.30
2018-10-01T23:29:19.665Z,13.03
2018-10-01T23:31:48.266Z,15.13
2018-10-01T23:34:16.800Z,11.17
2018-10-01T23:36:45.696Z,11.37
2018-10-01T23:39:14.250Z,11.27
2018-10-01T23:41:42.817Z,9.27
2018-10-01T23:44:11.317Z,9.40
2018-10-01T23:46:39.853Z,9.43
2018-10-01T23:49:08.346Z,9.67
2018-10-01T23:51:36.914Z,11.60
2018-10-01T23:54:05.493Z,12.67
2018-10-01T23:56:33.960Z,12.80
2018-10-01T23:59:04.891Z,16.17
